sensor_id;sensor_type;location;lat;lon;timestamp;P1;durP1;ratioP1;P2;durP2;ratioP2
68273;SDS011;55104;47.356;19.448;2023-05-19T00:01:10;8.70;;;2.20;;
68273;SDS011;55104;47.356;19.448;2023-05-19T00:04:14;5.70;;;2.00;;
68273;SDS011;55104;47.356;19.448;2023-05-19T00:07:17;4.70;;;1.45;;
68273;SDS011;55104;47.356;19.448;2023-05-19T00:10:21;5.63;;;1.70;;
68273;SDS011;55104;47.356;19.448;2023-05-19T00:13:23;5.32;;;1.60;;
68273;SDS011;55104;47.356;19.448;2023-05-19T00:16:26;5.82;;;1.60;;
68273;SDS011;55104;47.356;19.448;2023-05-19T00:19:29;5.80;;;1.60;;
68273;SDS011;55104;47.356;19.448;2023-05-19T00:22:33;6.18;;;1.33;;
68273;SDS011;55104;47.356;19.448;2023-05-19T00:25:35;10.07;;;1.65;;
68273;SDS011;55104;47.356;19.448;2023-05-19T00:28:37;6.47;;;1.73;;
68273;SDS011;55104;47.356;19.448;2023-05-19T00:31:39;5.40;;;1.73;;
68273;SDS011;55104;47.356;19.448;2023-05-19T00:34:43;6.95;;;1.88;;
68273;SDS011;55104;47.356;19.448;2023-05-19T00:37:45;5.85;;;1.73;;
68273;SDS011;55104;47.356;19.448;2023-05-19T00:40:47;6.13;;;1.73;;
68273;SDS011;55104;47.356;19.448;2023-05-19T00:43:49;6.55;;;1.58;;
68273;SDS011;55104;47.356;19.448;2023-05-19T00:46:51;5.83;;;1.53;;
68273;SDS011;55104;47.356;19.448;2023-05-19T00:49:53;5.03;;;1.52;;
68273;SDS011;55104;47.356;19.448;2023-05-19T00:52:55;5.25;;;1.65;;
68273;SDS011;55104;47.356;19.448;2023-05-19T00:55:58;6.88;;;2.15;;
68273;SDS011;55104;47.356;19.448;2023-05-19T00:59:02;7.22;;;2.08;;
68273;SDS011;55104;47.356;19.448;2023-05-19T01:02:05;5.80;;;1.50;;
68273;SDS011;55104;47.356;19.448;2023-05-19T01:05:08;6.10;;;1.95;;
68273;SDS011;55104;47.356;19.448;2023-05-19T01:08:10;6.55;;;1.73;;
68273;SDS011;55104;47.356;19.448;2023-05-19T01:11:12;8.65;;;2.00;;
68273;SDS011;55104;47.356;19.448;2023-05-19T01:14:15;7.45;;;2.45;;
68273;SDS011;55104;47.356;19.448;2023-05-19T01:17:18;7.53;;;1.80;;
68273;SDS011;55104;47.356;19.448;2023-05-19T01:20:33;6.47;;;1.98;;
68273;SDS011;55104;47.356;19.448;2023-05-19T01:23:42;12.55;;;2.85;;
68273;SDS011;55104;47.356;19.448;2023-05-19T01:33:33;7.00;;;2.20;;
68273;SDS011;55104;47.356;19.448;2023-05-19T01:36:36;7.13;;;2.45;;
68273;SDS011;55104;47.356;19.448;2023-05-19T01:39:40;10.15;;;2.30;;
68273;SDS011;55104;47.356;19.448;2023-05-19T01:42:44;8.20;;;2.20;;
68273;SDS011;55104;47.356;19.448;2023-05-19T01:45:47;6.25;;;1.95;;
68273;SDS011;55104;47.356;19.448;2023-05-19T01:48:49;6.20;;;2.10;;
68273;SDS011;55104;47.356;19.448;2023-05-19T01:51:53;8.13;;;2.45;;
68273;SDS011;55104;47.356;19.448;2023-05-19T01:54:56;8.15;;;2.20;;
68273;SDS011;55104;47.356;19.448;2023-05-19T01:58:00;5.90;;;1.90;;
68273;SDS011;55104;47.356;19.448;2023-05-19T02:04:35;7.53;;;2.00;;
68273;SDS011;55104;47.356;19.448;2023-05-19T02:07:54;4.65;;;1.40;;
68273;SDS011;55104;47.356;19.448;2023-05-19T02:11:02;6.65;;;1.67;;
68273;SDS011;55104;47.356;19.448;2023-05-19T02:14:14;7.13;;;1.70;;
68273;SDS011;55104;47.356;19.448;2023-05-19T02:17:20;7.00;;;2.00;;
68273;SDS011;55104;47.356;19.448;2023-05-19T02:20:25;4.57;;;1.50;;
68273;SDS011;55104;47.356;19.448;2023-05-19T02:23:27;6.55;;;1.95;;
68273;SDS011;55104;47.356;19.448;2023-05-19T02:26:31;5.32;;;1.63;;
68273;SDS011;55104;47.356;19.448;2023-05-19T02:29:33;5.68;;;1.48;;
68273;SDS011;55104;47.356;19.448;2023-05-19T02:32:35;8.57;;;1.80;;
68273;SDS011;55104;47.356;19.448;2023-05-19T02:35:37;5.72;;;1.83;;
68273;SDS011;55104;47.356;19.448;2023-05-19T02:38:39;6.38;;;1.98;;
68273;SDS011;55104;47.356;19.448;2023-05-19T02:41:41;5.90;;;1.83;;
68273;SDS011;55104;47.356;19.448;2023-05-19T02:44:43;7.97;;;2.35;;
68273;SDS011;55104;47.356;19.448;2023-05-19T02:47:45;6.68;;;1.98;;
68273;SDS011;55104;47.356;19.448;2023-05-19T02:50:48;6.28;;;1.95;;
68273;SDS011;55104;47.356;19.448;2023-05-19T02:53:50;7.93;;;2.13;;
68273;SDS011;55104;47.356;19.448;2023-05-19T02:56:52;5.97;;;1.90;;
68273;SDS011;55104;47.356;19.448;2023-05-19T02:59:54;6.17;;;1.90;;
68273;SDS011;55104;47.356;19.448;2023-05-19T03:02:56;5.43;;;1.70;;
68273;SDS011;55104;47.356;19.448;2023-05-19T03:06:03;6.95;;;1.73;;
68273;SDS011;55104;47.356;19.448;2023-05-19T03:09:09;7.95;;;2.10;;
68273;SDS011;55104;47.356;19.448;2023-05-19T03:12:11;6.97;;;2.53;;
68273;SDS011;55104;47.356;19.448;2023-05-19T03:15:13;8.70;;;2.28;;
68273;SDS011;55104;47.356;19.448;2023-05-19T03:18:15;7.80;;;2.58;;
68273;SDS011;55104;47.356;19.448;2023-05-19T03:21:17;6.28;;;2.20;;
68273;SDS011;55104;47.356;19.448;2023-05-19T03:24:19;5.75;;;1.67;;
68273;SDS011;55104;47.356;19.448;2023-05-19T03:27:21;7.40;;;2.57;;
68273;SDS011;55104;47.356;19.448;2023-05-19T03:30:23;8.32;;;2.10;;
68273;SDS011;55104;47.356;19.448;2023-05-19T03:33:47;6.13;;;1.85;;
68273;SDS011;55104;47.356;19.448;2023-05-19T03:36:50;5.85;;;2.00;;
68273;SDS011;55104;47.356;19.448;2023-05-19T03:39:52;6.13;;;1.95;;
68273;SDS011;55104;47.356;19.448;2023-05-19T03:42:54;10.00;;;1.80;;
68273;SDS011;55104;47.356;19.448;2023-05-19T03:45:57;7.05;;;2.17;;
68273;SDS011;55104;47.356;19.448;2023-05-19T03:49:17;6.18;;;2.10;;
68273;SDS011;55104;47.356;19.448;2023-05-19T03:52:49;8.10;;;2.53;;
68273;SDS011;55104;47.356;19.448;2023-05-19T03:56:01;7.60;;;2.30;;
68273;SDS011;55104;47.356;19.448;2023-05-19T03:59:03;6.25;;;1.92;;
68273;SDS011;55104;47.356;19.448;2023-05-19T04:02:07;6.93;;;2.10;;
68273;SDS011;55104;47.356;19.448;2023-05-19T04:05:09;6.95;;;2.20;;
68273;SDS011;55104;47.356;19.448;2023-05-19T04:08:11;6.38;;;2.05;;
68273;SDS011;55104;47.356;19.448;2023-05-19T04:11:14;7.47;;;2.20;;
68273;SDS011;55104;47.356;19.448;2023-05-19T04:14:16;7.38;;;2.33;;
68273;SDS011;55104;47.356;19.448;2023-05-19T04:17:18;7.55;;;2.42;;
68273;SDS011;55104;47.356;19.448;2023-05-19T04:20:21;6.40;;;2.05;;
68273;SDS011;55104;47.356;19.448;2023-05-19T04:23:24;6.55;;;2.00;;
68273;SDS011;55104;47.356;19.448;2023-05-19T04:26:26;6.57;;;1.83;;
68273;SDS011;55104;47.356;19.448;2023-05-19T04:29:31;7.32;;;2.00;;
68273;SDS011;55104;47.356;19.448;2023-05-19T04:32:34;5.60;;;1.70;;
68273;SDS011;55104;47.356;19.448;2023-05-19T04:35:39;5.60;;;1.70;;
68273;SDS011;55104;47.356;19.448;2023-05-19T04:38:43;7.95;;;1.95;;
68273;SDS011;55104;47.356;19.448;2023-05-19T04:41:48;4.87;;;1.50;;
68273;SDS011;55104;47.356;19.448;2023-05-19T04:44:50;7.47;;;1.85;;
68273;SDS011;55104;47.356;19.448;2023-05-19T04:47:53;6.78;;;1.70;;
68273;SDS011;55104;47.356;19.448;2023-05-19T04:50:59;5.47;;;1.63;;
68273;SDS011;55104;47.356;19.448;2023-05-19T04:54:02;8.43;;;2.20;;
68273;SDS011;55104;47.356;19.448;2023-05-19T04:57:04;5.23;;;1.50;;
68273;SDS011;55104;47.356;19.448;2023-05-19T05:00:10;5.47;;;1.85;;
68273;SDS011;55104;47.356;19.448;2023-05-19T05:03:28;5.78;;;1.95;;
68273;SDS011;55104;47.356;19.448;2023-05-19T05:06:31;5.57;;;1.80;;
68273;SDS011;55104;47.356;19.448;2023-05-19T05:09:34;6.97;;;1.90;;
68273;SDS011;55104;47.356;19.448;2023-05-19T05:12:36;7.70;;;2.43;;
68273;SDS011;55104;47.356;19.448;2023-05-19T05:15:39;10.23;;;2.50;;
68273;SDS011;55104;47.356;19.448;2023-05-19T05:18:42;7.63;;;2.10;;
68273;SDS011;55104;47.356;19.448;2023-05-19T05:21:46;6.13;;;1.88;;
68273;SDS011;55104;47.356;19.448;2023-05-19T05:24:49;10.13;;;2.03;;
68273;SDS011;55104;47.356;19.448;2023-05-19T05:27:52;6.40;;;1.97;;
68273;SDS011;55104;47.356;19.448;2023-05-19T05:30:54;6.07;;;2.13;;
68273;SDS011;55104;47.356;19.448;2023-05-19T05:33:58;8.55;;;2.33;;
68273;SDS011;55104;47.356;19.448;2023-05-19T05:37:04;8.68;;;2.50;;
68273;SDS011;55104;47.356;19.448;2023-05-19T05:40:08;7.22;;;2.13;;
68273;SDS011;55104;47.356;19.448;2023-05-19T05:43:10;7.30;;;2.20;;
68273;SDS011;55104;47.356;19.448;2023-05-19T05:46:19;7.75;;;2.33;;
68273;SDS011;55104;47.356;19.448;2023-05-19T05:49:21;9.73;;;2.40;;
68273;SDS011;55104;47.356;19.448;2023-05-19T05:52:25;7.45;;;2.13;;
68273;SDS011;55104;47.356;19.448;2023-05-19T05:55:32;6.65;;;2.50;;
68273;SDS011;55104;47.356;19.448;2023-05-19T05:58:35;6.10;;;2.03;;
68273;SDS011;55104;47.356;19.448;2023-05-19T06:01:38;5.30;;;2.07;;
68273;SDS011;55104;47.356;19.448;2023-05-19T06:04:42;7.05;;;2.35;;
68273;SDS011;55104;47.356;19.448;2023-05-19T06:07:44;9.07;;;2.42;;
68273;SDS011;55104;47.356;19.448;2023-05-19T06:10:52;6.10;;;2.17;;
68273;SDS011;55104;47.356;19.448;2023-05-19T06:13:55;7.57;;;2.90;;
68273;SDS011;55104;47.356;19.448;2023-05-19T06:17:17;10.33;;;2.90;;
68273;SDS011;55104;47.356;19.448;2023-05-19T06:20:19;7.10;;;2.67;;
68273;SDS011;55104;47.356;19.448;2023-05-19T06:23:21;9.98;;;2.85;;
68273;SDS011;55104;47.356;19.448;2023-05-19T06:26:24;7.35;;;2.78;;
68273;SDS011;55104;47.356;19.448;2023-05-19T06:29:27;10.20;;;2.70;;
68273;SDS011;55104;47.356;19.448;2023-05-19T06:32:32;7.32;;;2.78;;
68273;SDS011;55104;47.356;19.448;2023-05-19T06:35:36;8.32;;;2.95;;
68273;SDS011;55104;47.356;19.448;2023-05-19T06:38:39;6.40;;;2.25;;
68273;SDS011;55104;47.356;19.448;2023-05-19T06:41:42;7.13;;;2.70;;
68273;SDS011;55104;47.356;19.448;2023-05-19T06:44:56;8.87;;;2.87;;
68273;SDS011;55104;47.356;19.448;2023-05-19T06:48:00;7.82;;;3.13;;
68273;SDS011;55104;47.356;19.448;2023-05-19T06:51:03;6.70;;;2.70;;
68273;SDS011;55104;47.356;19.448;2023-05-19T06:54:07;8.07;;;2.75;;
68273;SDS011;55104;47.356;19.448;2023-05-19T06:57:11;8.32;;;2.95;;
68273;SDS011;55104;47.356;19.448;2023-05-19T07:00:14;8.30;;;3.23;;
68273;SDS011;55104;47.356;19.448;2023-05-19T07:03:22;7.57;;;2.42;;
68273;SDS011;55104;47.356;19.448;2023-05-19T07:06:25;6.32;;;2.70;;
68273;SDS011;55104;47.356;19.448;2023-05-19T07:09:27;8.27;;;2.58;;
68273;SDS011;55104;47.356;19.448;2023-05-19T07:12:30;8.10;;;3.30;;
68273;SDS011;55104;47.356;19.448;2023-05-19T07:15:33;8.90;;;3.17;;
68273;SDS011;55104;47.356;19.448;2023-05-19T07:18:35;7.73;;;3.40;;
68273;SDS011;55104;47.356;19.448;2023-05-19T07:21:37;7.32;;;3.10;;
68273;SDS011;55104;47.356;19.448;2023-05-19T07:24:39;7.03;;;2.70;;
68273;SDS011;55104;47.356;19.448;2023-05-19T07:27:41;11.18;;;3.28;;
68273;SDS011;55104;47.356;19.448;2023-05-19T07:30:43;9.10;;;2.83;;
68273;SDS011;55104;47.356;19.448;2023-05-19T07:33:45;9.03;;;2.80;;
68273;SDS011;55104;47.356;19.448;2023-05-19T07:36:48;6.60;;;3.10;;
68273;SDS011;55104;47.356;19.448;2023-05-19T07:39:50;7.35;;;3.30;;
68273;SDS011;55104;47.356;19.448;2023-05-19T07:42:52;7.85;;;2.80;;
68273;SDS011;55104;47.356;19.448;2023-05-19T07:45:54;12.80;;;3.90;;
68273;SDS011;55104;47.356;19.448;2023-05-19T07:48:57;7.40;;;3.20;;
68273;SDS011;55104;47.356;19.448;2023-05-19T07:51:59;6.78;;;3.28;;
68273;SDS011;55104;47.356;19.448;2023-05-19T07:55:01;8.90;;;3.63;;
68273;SDS011;55104;47.356;19.448;2023-05-19T07:58:03;9.82;;;3.78;;
68273;SDS011;55104;47.356;19.448;2023-05-19T08:01:06;9.47;;;3.40;;
68273;SDS011;55104;47.356;19.448;2023-05-19T08:04:08;8.07;;;3.70;;
68273;SDS011;55104;47.356;19.448;2023-05-19T08:07:13;8.13;;;3.95;;
68273;SDS011;55104;47.356;19.448;2023-05-19T08:10:15;8.75;;;3.97;;
68273;SDS011;55104;47.356;19.448;2023-05-19T08:13:18;8.35;;;3.45;;
68273;SDS011;55104;47.356;19.448;2023-05-19T08:16:23;8.00;;;3.57;;
68273;SDS011;55104;47.356;19.448;2023-05-19T08:19:25;10.27;;;3.77;;
68273;SDS011;55104;47.356;19.448;2023-05-19T08:22:27;8.48;;;3.90;;
68273;SDS011;55104;47.356;19.448;2023-05-19T08:25:29;8.02;;;3.47;;
68273;SDS011;55104;47.356;19.448;2023-05-19T08:28:31;8.63;;;4.38;;
68273;SDS011;55104;47.356;19.448;2023-05-19T08:31:34;9.37;;;4.47;;
68273;SDS011;55104;47.356;19.448;2023-05-19T08:34:36;8.80;;;4.20;;
68273;SDS011;55104;47.356;19.448;2023-05-19T08:37:38;10.75;;;4.05;;
68273;SDS011;55104;47.356;19.448;2023-05-19T08:40:40;9.55;;;3.72;;
68273;SDS011;55104;47.356;19.448;2023-05-19T08:43:43;8.00;;;4.30;;
68273;SDS011;55104;47.356;19.448;2023-05-19T08:46:46;7.20;;;3.70;;
68273;SDS011;55104;47.356;19.448;2023-05-19T08:49:51;8.90;;;4.57;;
68273;SDS011;55104;47.356;19.448;2023-05-19T08:56:33;7.68;;;3.70;;
68273;SDS011;55104;47.356;19.448;2023-05-19T08:59:35;7.32;;;3.47;;
68273;SDS011;55104;47.356;19.448;2023-05-19T09:02:38;8.23;;;3.30;;
68273;SDS011;55104;47.356;19.448;2023-05-19T09:06:01;9.07;;;3.53;;
68273;SDS011;55104;47.356;19.448;2023-05-19T09:09:06;8.35;;;3.33;;
68273;SDS011;55104;47.356;19.448;2023-05-19T09:12:09;7.15;;;3.50;;
68273;SDS011;55104;47.356;19.448;2023-05-19T09:15:12;8.05;;;3.90;;
68273;SDS011;55104;47.356;19.448;2023-05-19T09:18:19;7.43;;;3.50;;
68273;SDS011;55104;47.356;19.448;2023-05-19T09:21:27;10.60;;;4.27;;
68273;SDS011;55104;47.356;19.448;2023-05-19T09:24:33;8.05;;;3.33;;
68273;SDS011;55104;47.356;19.448;2023-05-19T09:27:36;9.65;;;4.18;;
68273;SDS011;55104;47.356;19.448;2023-05-19T09:30:38;8.10;;;3.20;;
68273;SDS011;55104;47.356;19.448;2023-05-19T09:33:41;14.40;;;4.73;;
68273;SDS011;55104;47.356;19.448;2023-05-19T09:36:46;7.73;;;3.57;;
68273;SDS011;55104;47.356;19.448;2023-05-19T09:39:54;7.05;;;2.90;;
68273;SDS011;55104;47.356;19.448;2023-05-19T09:42:56;12.85;;;4.20;;
68273;SDS011;55104;47.356;19.448;2023-05-19T09:46:05;7.95;;;3.10;;
68273;SDS011;55104;47.356;19.448;2023-05-19T09:49:08;7.00;;;3.20;;
68273;SDS011;55104;47.356;19.448;2023-05-19T09:52:11;7.30;;;3.23;;
68273;SDS011;55104;47.356;19.448;2023-05-19T09:55:16;7.20;;;3.25;;
68273;SDS011;55104;47.356;19.448;2023-05-19T09:58:20;6.85;;;2.70;;
68273;SDS011;55104;47.356;19.448;2023-05-19T10:01:23;8.02;;;3.15;;
68273;SDS011;55104;47.356;19.448;2023-05-19T10:04:27;9.07;;;2.97;;
68273;SDS011;55104;47.356;19.448;2023-05-19T10:07:30;6.47;;;2.63;;
68273;SDS011;55104;47.356;19.448;2023-05-19T10:10:33;7.22;;;3.33;;
68273;SDS011;55104;47.356;19.448;2023-05-19T10:13:35;7.53;;;2.97;;
68273;SDS011;55104;47.356;19.448;2023-05-19T10:16:39;8.13;;;3.30;;
68273;SDS011;55104;47.356;19.448;2023-05-19T10:19:42;7.60;;;2.93;;
68273;SDS011;55104;47.356;19.448;2023-05-19T10:22:45;8.63;;;2.70;;
68273;SDS011;55104;47.356;19.448;2023-05-19T10:25:47;7.57;;;3.10;;
68273;SDS011;55104;47.356;19.448;2023-05-19T10:28:52;7.53;;;2.90;;
68273;SDS011;55104;47.356;19.448;2023-05-19T10:31:54;6.43;;;2.30;;
68273;SDS011;55104;47.356;19.448;2023-05-19T10:38:31;6.70;;;2.70;;
68273;SDS011;55104;47.356;19.448;2023-05-19T10:45:15;5.82;;;2.20;;
68273;SDS011;55104;47.356;19.448;2023-05-19T10:48:20;6.22;;;2.40;;
68273;SDS011;55104;47.356;19.448;2023-05-19T10:51:29;7.57;;;2.83;;
68273;SDS011;55104;47.356;19.448;2023-05-19T10:54:39;8.23;;;2.43;;
68273;SDS011;55104;47.356;19.448;2023-05-19T10:57:53;5.43;;;1.80;;
68273;SDS011;55104;47.356;19.448;2023-05-19T11:01:01;5.85;;;2.00;;
68273;SDS011;55104;47.356;19.448;2023-05-19T11:04:08;6.85;;;2.35;;
68273;SDS011;55104;47.356;19.448;2023-05-19T11:07:19;5.57;;;2.23;;
68273;SDS011;55104;47.356;19.448;2023-05-19T11:10:22;6.80;;;2.50;;
68273;SDS011;55104;47.356;19.448;2023-05-19T11:13:25;5.85;;;2.22;;
68273;SDS011;55104;47.356;19.448;2023-05-19T11:16:30;5.07;;;2.13;;
68273;SDS011;55104;47.356;19.448;2023-05-19T11:19:33;5.65;;;1.98;;
68273;SDS011;55104;47.356;19.448;2023-05-19T11:22:36;5.33;;;2.07;;
68273;SDS011;55104;47.356;19.448;2023-05-19T11:25:40;5.77;;;2.20;;
68273;SDS011;55104;47.356;19.448;2023-05-19T11:28:43;5.50;;;1.98;;
68273;SDS011;55104;47.356;19.448;2023-05-19T11:31:45;4.90;;;1.90;;
68273;SDS011;55104;47.356;19.448;2023-05-19T11:34:49;5.50;;;1.73;;
68273;SDS011;55104;47.356;19.448;2023-05-19T11:37:52;5.00;;;1.90;;
68273;SDS011;55104;47.356;19.448;2023-05-19T11:40:55;5.77;;;2.20;;
68273;SDS011;55104;47.356;19.448;2023-05-19T11:43:57;5.38;;;2.20;;
68273;SDS011;55104;47.356;19.448;2023-05-19T11:46:59;4.65;;;1.77;;
68273;SDS011;55104;47.356;19.448;2023-05-19T11:50:01;6.68;;;1.60;;
68273;SDS011;55104;47.356;19.448;2023-05-19T11:53:05;4.67;;;1.70;;
68273;SDS011;55104;47.356;19.448;2023-05-19T11:56:07;5.57;;;1.97;;
68273;SDS011;55104;47.356;19.448;2023-05-19T11:59:09;5.93;;;2.35;;
68273;SDS011;55104;47.356;19.448;2023-05-19T12:05:21;6.53;;;1.95;;
68273;SDS011;55104;47.356;19.448;2023-05-19T12:08:24;5.27;;;1.97;;
68273;SDS011;55104;47.356;19.448;2023-05-19T12:11:28;4.97;;;1.73;;
68273;SDS011;55104;47.356;19.448;2023-05-19T12:14:30;4.90;;;1.40;;
68273;SDS011;55104;47.356;19.448;2023-05-19T12:17:32;5.40;;;2.10;;
68273;SDS011;55104;47.356;19.448;2023-05-19T12:20:34;5.80;;;2.00;;
68273;SDS011;55104;47.356;19.448;2023-05-19T12:23:37;5.47;;;2.10;;
68273;SDS011;55104;47.356;19.448;2023-05-19T12:26:39;4.60;;;1.77;;
68273;SDS011;55104;47.356;19.448;2023-05-19T12:29:41;5.20;;;1.85;;
68273;SDS011;55104;47.356;19.448;2023-05-19T12:32:44;4.28;;;1.73;;
68273;SDS011;55104;47.356;19.448;2023-05-19T12:35:47;5.25;;;1.98;;
68273;SDS011;55104;47.356;19.448;2023-05-19T12:38:53;8.00;;;1.80;;
68273;SDS011;55104;47.356;19.448;2023-05-19T12:42:29;5.90;;;1.80;;
68273;SDS011;55104;47.356;19.448;2023-05-19T12:45:24;7.93;;;2.15;;
68273;SDS011;55104;47.356;19.448;2023-05-19T12:48:29;5.80;;;2.08;;
68273;SDS011;55104;47.356;19.448;2023-05-19T12:51:31;5.53;;;2.50;;
68273;SDS011;55104;47.356;19.448;2023-05-19T12:54:33;5.37;;;1.80;;
68273;SDS011;55104;47.356;19.448;2023-05-19T12:57:39;6.77;;;1.70;;
68273;SDS011;55104;47.356;19.448;2023-05-19T13:00:43;6.85;;;2.13;;
68273;SDS011;55104;47.356;19.448;2023-05-19T13:03:48;5.85;;;1.90;;
68273;SDS011;55104;47.356;19.448;2023-05-19T13:06:53;4.45;;;1.65;;
68273;SDS011;55104;47.356;19.448;2023-05-19T13:09:56;4.93;;;1.70;;
68273;SDS011;55104;47.356;19.448;2023-05-19T13:12:58;4.80;;;1.77;;
68273;SDS011;55104;47.356;19.448;2023-05-19T13:16:00;4.93;;;1.83;;
68273;SDS011;55104;47.356;19.448;2023-05-19T13:19:02;7.97;;;2.00;;
68273;SDS011;55104;47.356;19.448;2023-05-19T13:22:07;5.32;;;1.98;;
68273;SDS011;55104;47.356;19.448;2023-05-19T13:25:09;5.20;;;1.90;;
68273;SDS011;55104;47.356;19.448;2023-05-19T13:28:11;5.47;;;1.80;;
68273;SDS011;55104;47.356;19.448;2023-05-19T13:31:13;5.57;;;2.30;;
68273;SDS011;55104;47.356;19.448;2023-05-19T13:34:15;5.28;;;2.13;;
68273;SDS011;55104;47.356;19.448;2023-05-19T13:37:18;5.07;;;1.80;;
68273;SDS011;55104;47.356;19.448;2023-05-19T13:40:21;4.70;;;1.83;;
68273;SDS011;55104;47.356;19.448;2023-05-19T13:43:24;5.83;;;2.07;;
68273;SDS011;55104;47.356;19.448;2023-05-19T13:46:26;5.03;;;1.88;;
68273;SDS011;55104;47.356;19.448;2023-05-19T13:49:44;5.97;;;2.28;;
68273;SDS011;55104;47.356;19.448;2023-05-19T13:52:46;6.22;;;2.38;;
68273;SDS011;55104;47.356;19.448;2023-05-19T13:55:49;6.60;;;2.03;;
68273;SDS011;55104;47.356;19.448;2023-05-19T13:58:53;5.30;;;2.10;;
68273;SDS011;55104;47.356;19.448;2023-05-19T14:01:55;6.95;;;2.22;;
68273;SDS011;55104;47.356;19.448;2023-05-19T14:04:58;6.10;;;2.00;;
68273;SDS011;55104;47.356;19.448;2023-05-19T14:08:00;6.57;;;2.60;;
68273;SDS011;55104;47.356;19.448;2023-05-19T14:11:04;6.20;;;2.40;;
68273;SDS011;55104;47.356;19.448;2023-05-19T14:14:06;6.27;;;2.40;;
68273;SDS011;55104;47.356;19.448;2023-05-19T14:17:11;7.18;;;2.20;;
68273;SDS011;55104;47.356;19.448;2023-05-19T14:20:13;8.93;;;2.70;;
68273;SDS011;55104;47.356;19.448;2023-05-19T14:23:15;5.85;;;2.42;;
68273;SDS011;55104;47.356;19.448;2023-05-19T14:26:18;5.27;;;2.20;;
68273;SDS011;55104;47.356;19.448;2023-05-19T14:29:20;7.27;;;2.03;;
68273;SDS011;55104;47.356;19.448;2023-05-19T14:32:22;8.45;;;2.70;;
68273;SDS011;55104;47.356;19.448;2023-05-19T14:35:24;5.00;;;2.10;;
68273;SDS011;55104;47.356;19.448;2023-05-19T14:38:26;6.40;;;2.47;;
68273;SDS011;55104;47.356;19.448;2023-05-19T14:41:30;5.47;;;2.17;;
68273;SDS011;55104;47.356;19.448;2023-05-19T14:44:32;5.73;;;2.70;;
68273;SDS011;55104;47.356;19.448;2023-05-19T14:47:34;7.22;;;2.78;;
68273;SDS011;55104;47.356;19.448;2023-05-19T14:50:36;5.25;;;2.00;;
68273;SDS011;55104;47.356;19.448;2023-05-19T14:53:38;6.53;;;2.10;;
68273;SDS011;55104;47.356;19.448;2023-05-19T14:56:40;7.27;;;2.30;;
68273;SDS011;55104;47.356;19.448;2023-05-19T14:59:43;5.87;;;2.60;;
68273;SDS011;55104;47.356;19.448;2023-05-19T15:02:45;7.88;;;2.00;;
68273;SDS011;55104;47.356;19.448;2023-05-19T15:05:47;6.32;;;1.90;;
68273;SDS011;55104;47.356;19.448;2023-05-19T15:08:49;7.45;;;2.30;;
68273;SDS011;55104;47.356;19.448;2023-05-19T15:11:52;6.23;;;2.10;;
68273;SDS011;55104;47.356;19.448;2023-05-19T15:14:54;5.33;;;2.00;;
68273;SDS011;55104;47.356;19.448;2023-05-19T15:17:56;6.38;;;2.13;;
68273;SDS011;55104;47.356;19.448;2023-05-19T15:20:58;6.15;;;2.42;;
68273;SDS011;55104;47.356;19.448;2023-05-19T15:24:00;7.80;;;2.72;;
68273;SDS011;55104;47.356;19.448;2023-05-19T15:27:03;6.27;;;1.97;;
68273;SDS011;55104;47.356;19.448;2023-05-19T15:30:05;8.73;;;2.17;;
68273;SDS011;55104;47.356;19.448;2023-05-19T15:33:07;5.57;;;2.30;;
68273;SDS011;55104;47.356;19.448;2023-05-19T15:36:11;5.88;;;2.10;;
68273;SDS011;55104;47.356;19.448;2023-05-19T15:39:17;5.40;;;2.33;;
68273;SDS011;55104;47.356;19.448;2023-05-19T15:42:19;5.63;;;2.30;;
68273;SDS011;55104;47.356;19.448;2023-05-19T15:45:21;6.67;;;2.00;;
68273;SDS011;55104;47.356;19.448;2023-05-19T15:48:23;5.60;;;2.47;;
68273;SDS011;55104;47.356;19.448;2023-05-19T15:51:29;5.15;;;2.08;;
68273;SDS011;55104;47.356;19.448;2023-05-19T15:54:32;5.63;;;2.50;;
68273;SDS011;55104;47.356;19.448;2023-05-19T15:57:34;6.73;;;2.10;;
68273;SDS011;55104;47.356;19.448;2023-05-19T16:00:36;6.87;;;2.23;;
68273;SDS011;55104;47.356;19.448;2023-05-19T16:03:38;6.93;;;2.00;;
68273;SDS011;55104;47.356;19.448;2023-05-19T16:06:40;5.95;;;2.17;;
68273;SDS011;55104;47.356;19.448;2023-05-19T16:09:42;6.30;;;2.00;;
68273;SDS011;55104;47.356;19.448;2023-05-19T16:12:44;6.53;;;2.27;;
68273;SDS011;55104;47.356;19.448;2023-05-19T16:15:46;5.30;;;1.90;;
68273;SDS011;55104;47.356;19.448;2023-05-19T16:18:49;7.35;;;2.40;;
68273;SDS011;55104;47.356;19.448;2023-05-19T16:21:51;6.70;;;2.10;;
68273;SDS011;55104;47.356;19.448;2023-05-19T16:24:53;6.88;;;2.40;;
68273;SDS011;55104;47.356;19.448;2023-05-19T16:27:55;6.37;;;2.60;;
68273;SDS011;55104;47.356;19.448;2023-05-19T16:30:58;5.83;;;2.43;;
68273;SDS011;55104;47.356;19.448;2023-05-19T16:34:00;5.40;;;2.08;;
68273;SDS011;55104;47.356;19.448;2023-05-19T16:37:03;5.90;;;2.13;;
68273;SDS011;55104;47.356;19.448;2023-05-19T16:40:05;5.03;;;1.83;;
68273;SDS011;55104;47.356;19.448;2023-05-19T16:43:08;6.53;;;2.20;;
68273;SDS011;55104;47.356;19.448;2023-05-19T16:46:10;5.57;;;2.10;;
68273;SDS011;55104;47.356;19.448;2023-05-19T16:49:12;6.57;;;2.00;;
68273;SDS011;55104;47.356;19.448;2023-05-19T16:52:14;6.13;;;2.20;;
68273;SDS011;55104;47.356;19.448;2023-05-19T16:55:17;6.43;;;2.38;;
68273;SDS011;55104;47.356;19.448;2023-05-19T16:58:20;5.67;;;2.10;;
68273;SDS011;55104;47.356;19.448;2023-05-19T17:01:22;6.57;;;2.40;;
68273;SDS011;55104;47.356;19.448;2023-05-19T17:04:24;9.05;;;2.20;;
68273;SDS011;55104;47.356;19.448;2023-05-19T17:07:29;8.73;;;2.50;;
68273;SDS011;55104;47.356;19.448;2023-05-19T17:10:31;6.45;;;2.20;;
68273;SDS011;55104;47.356;19.448;2023-05-19T17:13:34;7.13;;;2.43;;
68273;SDS011;55104;47.356;19.448;2023-05-19T17:16:37;8.67;;;2.80;;
68273;SDS011;55104;47.356;19.448;2023-05-19T17:19:39;7.82;;;2.78;;
68273;SDS011;55104;47.356;19.448;2023-05-19T17:22:41;7.45;;;2.60;;
68273;SDS011;55104;47.356;19.448;2023-05-19T17:25:43;5.63;;;2.22;;
68273;SDS011;55104;47.356;19.448;2023-05-19T17:28:45;7.07;;;2.70;;
68273;SDS011;55104;47.356;19.448;2023-05-19T17:31:47;7.23;;;2.50;;
68273;SDS011;55104;47.356;19.448;2023-05-19T17:34:50;7.40;;;2.40;;
68273;SDS011;55104;47.356;19.448;2023-05-19T17:37:52;7.25;;;2.50;;
68273;SDS011;55104;47.356;19.448;2023-05-19T17:41:00;7.47;;;2.40;;
68273;SDS011;55104;47.356;19.448;2023-05-19T17:44:03;6.70;;;2.47;;
68273;SDS011;55104;47.356;19.448;2023-05-19T17:47:07;5.77;;;2.20;;
68273;SDS011;55104;47.356;19.448;2023-05-19T17:50:09;8.80;;;2.70;;
68273;SDS011;55104;47.356;19.448;2023-05-19T17:53:11;7.13;;;2.30;;
68273;SDS011;55104;47.356;19.448;2023-05-19T17:56:13;8.85;;;2.67;;
68273;SDS011;55104;47.356;19.448;2023-05-19T17:59:15;7.97;;;3.50;;
68273;SDS011;55104;47.356;19.448;2023-05-19T18:02:18;7.93;;;3.43;;
68273;SDS011;55104;47.356;19.448;2023-05-19T18:05:20;10.23;;;3.53;;
68273;SDS011;55104;47.356;19.448;2023-05-19T18:08:22;8.45;;;3.67;;
68273;SDS011;55104;47.356;19.448;2023-05-19T18:11:25;10.35;;;3.60;;
68273;SDS011;55104;47.356;19.448;2023-05-19T18:14:27;10.47;;;3.93;;
68273;SDS011;55104;47.356;19.448;2023-05-19T18:17:29;9.13;;;4.13;;
68273;SDS011;55104;47.356;19.448;2023-05-19T18:20:34;10.73;;;4.07;;
68273;SDS011;55104;47.356;19.448;2023-05-19T18:23:39;7.95;;;3.55;;
68273;SDS011;55104;47.356;19.448;2023-05-19T18:26:42;9.57;;;4.10;;
68273;SDS011;55104;47.356;19.448;2023-05-19T18:29:44;9.33;;;3.97;;
68273;SDS011;55104;47.356;19.448;2023-05-19T18:32:46;8.43;;;4.03;;